sensor_id;sensor_type;location;lat;lon;timestamp;temperature;humidity
26304;DHT22;57113;48.680;8.890;2023-02-01T00:01:53;5.80;99.90
26304;DHT22;57113;48.680;8.890;2023-02-01T00:04:19;5.80;99.90
26304;DHT22;57113;48.680;8.890;2023-02-01T00:06:45;6.00;99.90
26304;DHT22;57113;48.680;8.890;2023-02-01T00:09:10;6.10;99.90
26304;DHT22;57113;48.680;8.890;2023-02-01T00:11:36;6.40;99.90
26304;DHT22;57113;48.680;8.890;2023-02-01T00:14:01;6.60;99.90
26304;DHT22;57113;48.680;8.890;2023-02-01T00:16:29;6.70;99.90
26304;DHT22;57113;48.680;8.890;2023-02-01T00:19:10;6.60;99.90
26304;DHT22;57113;48.680;8.890;2023-02-01T00:21:36;6.60;99.90
26304;DHT22;57113;48.680;8.890;2023-02-01T00:24:02;6.50;99.90
26304;DHT22;57113;48.680;8.890;2023-02-01T00:28:58;6.30;99.90
26304;DHT22;57113;48.680;8.890;2023-02-01T00:31:24;6.30;99.90
26304;DHT22;57113;48.680;8.890;2023-02-01T00:33:50;6.20;99.90
26304;DHT22;57113;48.680;8.890;2023-02-01T00:36:16;6.10;99.90
26304;DHT22;57113;48.680;8.890;2023-02-01T00:38:42;6.00;99.90
26304;DHT22;57113;48.680;8.890;2023-02-01T00:41:11;6.00;99.90
26304;DHT22;57113;48.680;8.890;2023-02-01T00:43:38;6.00;99.90
26304;DHT22;57113;48.680;8.890;2023-02-01T00:46:04;5.90;99.90
26304;DHT22;57113;48.680;8.890;2023-02-01T00:48:30;5.90;99.90
26304;DHT22;57113;48.680;8.890;2023-02-01T00:51:10;5.90;99.90
26304;DHT22;57113;48.680;8.890;2023-02-01T00:53:36;5.80;99.90
26304;DHT22;57113;48.680;8.890;2023-02-01T00:56:03;5.80;99.90
26304;DHT22;57113;48.680;8.890;2023-02-01T00:58:29;5.80;99.90
26304;DHT22;57113;48.680;8.890;2023-02-01T01:03:26;5.80;99.90
26304;DHT22;57113;48.680;8.890;2023-02-01T01:05:57;5.90;99.90
26304;DHT22;57113;48.680;8.890;2023-02-01T01:08:22;6.10;99.90
26304;DHT22;57113;48.680;8.890;2023-02-01T01:10:48;6.30;99.90
26304;DHT22;57113;48.680;8.890;2023-02-01T01:13:14;6.50;99.90
26304;DHT22;57113;48.680;8.890;2023-02-01T01:15:40;6.70;99.90
26304;DHT22;57113;48.680;8.890;2023-02-01T01:18:06;6.70;99.90
26304;DHT22;57113;48.680;8.890;2023-02-01T01:20:37;6.60;99.90
26304;DHT22;57113;48.680;8.890;2023-02-01T01:23:03;6.60;99.90
26304;DHT22;57113;48.680;8.890;2023-02-01T01:25:30;6.50;99.90
26304;DHT22;57113;48.680;8.890;2023-02-01T01:27:55;6.40;99.90
26304;DHT22;57113;48.680;8.890;2023-02-01T01:30:21;6.30;99.90
26304;DHT22;57113;48.680;8.890;2023-02-01T01:32:47;6.20;99.90
26304;DHT22;57113;48.680;8.890;2023-02-01T01:35:12;6.10;99.90
26304;DHT22;57113;48.680;8.890;2023-02-01T01:37:38;6.10;99.90
26304;DHT22;57113;48.680;8.890;2023-02-01T01:40:05;6.10;99.90
26304;DHT22;57113;48.680;8.890;2023-02-01T01:42:40;6.00;99.90
26304;DHT22;57113;48.680;8.890;2023-02-01T01:47:40;5.90;99.90
26304;DHT22;57113;48.680;8.890;2023-02-01T01:50:10;5.90;99.90
26304;DHT22;57113;48.680;8.890;2023-02-01T01:52:38;5.80;99.90
26304;DHT22;57113;48.680;8.890;2023-02-01T01:55:05;5.80;99.90
26304;DHT22;57113;48.680;8.890;2023-02-01T01:57:38;5.80;99.90
26304;DHT22;57113;48.680;8.890;2023-02-01T02:00:14;5.80;99.90
26304;DHT22;57113;48.680;8.890;2023-02-01T02:02:42;5.80;99.90
26304;DHT22;57113;48.680;8.890;2023-02-01T02:05:09;5.80;99.90
26304;DHT22;57113;48.680;8.890;2023-02-01T02:07:39;5.90;99.90
26304;DHT22;57113;48.680;8.890;2023-02-01T02:10:08;6.20;99.90
26304;DHT22;57113;48.680;8.890;2023-02-01T02:12:38;6.40;99.90
26304;DHT22;57113;48.680;8.890;2023-02-01T02:15:06;6.70;99.90
26304;DHT22;57113;48.680;8.890;2023-02-01T02:17:46;6.70;99.90
26304;DHT22;57113;48.680;8.890;2023-02-01T02:23:33;6.60;99.90
26304;DHT22;57113;48.680;8.890;2023-02-01T02:31:28;6.40;99.90
26304;DHT22;57113;48.680;8.890;2023-02-01T02:39:19;6.10;99.90
26304;DHT22;57113;48.680;8.890;2023-02-01T02:48:02;5.90;99.90
26304;DHT22;57113;48.680;8.890;2023-02-01T02:50:37;6.00;99.90
26304;DHT22;57113;48.680;8.890;2023-02-01T02:56:46;5.90;99.90
26304;DHT22;57113;48.680;8.890;2023-02-01T02:59:30;5.80;99.90
26304;DHT22;57113;48.680;8.890;2023-02-01T03:02:16;5.80;99.90
26304;DHT22;57113;48.680;8.890;2023-02-01T03:05:02;5.90;99.90
26304;DHT22;57113;48.680;8.890;2023-02-01T03:10:55;6.30;99.90
26304;DHT22;57113;48.680;8.890;2023-02-01T03:16:17;6.70;99.90
26304;DHT22;57113;48.680;8.890;2023-02-01T03:21:59;6.70;99.90
26304;DHT22;57113;48.680;8.890;2023-02-01T03:24:33;6.60;99.90
26304;DHT22;57113;48.680;8.890;2023-02-01T03:27:20;6.50;99.90
26304;DHT22;57113;48.680;8.890;2023-02-01T03:30:24;6.50;99.90
26304;DHT22;57113;48.680;8.890;2023-02-01T03:32:45;6.30;99.90
26304;DHT22;57113;48.680;8.890;2023-02-01T03:38:23;6.20;99.90
26304;DHT22;57113;48.680;8.890;2023-02-01T03:41:29;6.10;99.90
26304;DHT22;57113;48.680;8.890;2023-02-01T03:44:21;6.00;99.90
26304;DHT22;57113;48.680;8.890;2023-02-01T03:46:57;6.00;99.90
26304;DHT22;57113;48.680;8.890;2023-02-01T03:49:35;6.00;99.90
26304;DHT22;57113;48.680;8.890;2023-02-01T03:52:02;5.90;99.90
26304;DHT22;57113;48.680;8.890;2023-02-01T03:54:29;5.90;99.90
26304;DHT22;57113;48.680;8.890;2023-02-01T03:56:59;5.90;99.90
26304;DHT22;57113;48.680;8.890;2023-02-01T03:59:26;5.80;99.90
26304;DHT22;57113;48.680;8.890;2023-02-01T04:01:51;5.80;99.90
26304;DHT22;57113;48.680;8.890;2023-02-01T04:04:18;5.90;99.90
26304;DHT22;57113;48.680;8.890;2023-02-01T04:06:48;6.00;99.90
26304;DHT22;57113;48.680;8.890;2023-02-01T04:09:13;6.20;99.90
26304;DHT22;57113;48.680;8.890;2023-02-01T04:11:39;6.40;99.90
26304;DHT22;57113;48.680;8.890;2023-02-01T04:14:05;6.60;99.90
26304;DHT22;57113;48.680;8.890;2023-02-01T04:16:31;6.80;99.90
26304;DHT22;57113;48.680;8.890;2023-02-01T04:18:57;6.80;99.90
26304;DHT22;57113;48.680;8.890;2023-02-01T04:21:24;6.70;99.90
26304;DHT22;57113;48.680;8.890;2023-02-01T04:23:50;6.70;99.90
26304;DHT22;57113;48.680;8.890;2023-02-01T04:26:16;6.60;99.90
26304;DHT22;57113;48.680;8.890;2023-02-01T04:28:42;6.50;99.90
26304;DHT22;57113;48.680;8.890;2023-02-01T04:31:07;6.40;99.90
26304;DHT22;57113;48.680;8.890;2023-02-01T04:33:33;6.30;99.90
26304;DHT22;57113;48.680;8.890;2023-02-01T04:35:59;6.30;99.90
26304;DHT22;57113;48.680;8.890;2023-02-01T04:38:25;6.20;99.90
26304;DHT22;57113;48.680;8.890;2023-02-01T04:40:50;6.10;99.90
26304;DHT22;57113;48.680;8.890;2023-02-01T04:43:17;6.10;99.90
26304;DHT22;57113;48.680;8.890;2023-02-01T04:45:47;6.00;99.90
26304;DHT22;57113;48.680;8.890;2023-02-01T04:48:12;6.00;99.90
26304;DHT22;57113;48.680;8.890;2023-02-01T04:50:38;6.00;99.90
26304;DHT22;57113;48.680;8.890;2023-02-01T04:53:03;5.90;99.90
26304;DHT22;57113;48.680;8.890;2023-02-01T04:55:29;5.90;99.90
26304;DHT22;57113;48.680;8.890;2023-02-01T04:57:56;5.90;99.90
26304;DHT22;57113;48.680;8.890;2023-02-01T05:00:22;5.90;99.90
26304;DHT22;57113;48.680;8.890;2023-02-01T05:02:47;5.90;99.90
26304;DHT22;57113;48.680;8.890;2023-02-01T05:05:13;5.90;99.90
26304;DHT22;57113;48.680;8.890;2023-02-01T05:07:39;6.10;99.90
26304;DHT22;57113;48.680;8.890;2023-02-01T05:10:04;6.30;99.90
26304;DHT22;57113;48.680;8.890;2023-02-01T05:12:30;6.50;99.90
26304;DHT22;57113;48.680;8.890;2023-02-01T05:15:14;6.70;99.90
26304;DHT22;57113;48.680;8.890;2023-02-01T05:17:40;6.80;99.90
26304;DHT22;57113;48.680;8.890;2023-02-01T05:20:07;6.80;99.90
26304;DHT22;57113;48.680;8.890;2023-02-01T05:22:33;6.70;99.90
26304;DHT22;57113;48.680;8.890;2023-02-01T05:24:58;6.60;99.90
26304;DHT22;57113;48.680;8.890;2023-02-01T05:27:24;6.60;99.90
26304;DHT22;57113;48.680;8.890;2023-02-01T05:29:49;6.50;99.90
26304;DHT22;57113;48.680;8.890;2023-02-01T05:32:15;6.40;99.90
26304;DHT22;57113;48.680;8.890;2023-02-01T05:34:40;6.30;99.90
26304;DHT22;57113;48.680;8.890;2023-02-01T05:37:06;6.20;99.90
26304;DHT22;57113;48.680;8.890;2023-02-01T05:39:32;6.20;99.90
26304;DHT22;57113;48.680;8.890;2023-02-01T05:41:57;6.20;99.90
26304;DHT22;57113;48.680;8.890;2023-02-01T05:44:23;6.10;99.90
26304;DHT22;57113;48.680;8.890;2023-02-01T05:46:49;6.10;99.90
26304;DHT22;57113;48.680;8.890;2023-02-01T05:49:14;6.00;99.90
26304;DHT22;57113;48.680;8.890;2023-02-01T05:51:40;5.90;99.90
26304;DHT22;57113;48.680;8.890;2023-02-01T05:54:06;5.90;99.90
26304;DHT22;57113;48.680;8.890;2023-02-01T05:56:31;5.90;99.90
26304;DHT22;57113;48.680;8.890;2023-02-01T05:58:57;5.80;99.90
26304;DHT22;57113;48.680;8.890;2023-02-01T06:01:22;5.80;99.90
26304;DHT22;57113;48.680;8.890;2023-02-01T06:03:48;5.80;99.90
26304;DHT22;57113;48.680;8.890;2023-02-01T06:06:14;6.00;99.90
26304;DHT22;57113;48.680;8.890;2023-02-01T06:08:40;6.20;99.90
26304;DHT22;57113;48.680;8.890;2023-02-01T06:11:06;6.40;99.90
26304;DHT22;57113;48.680;8.890;2023-02-01T06:13:32;6.60;99.90
26304;DHT22;57113;48.680;8.890;2023-02-01T06:15:58;6.70;99.90
26304;DHT22;57113;48.680;8.890;2023-02-01T06:18:24;6.70;99.90
26304;DHT22;57113;48.680;8.890;2023-02-01T06:20:57;6.70;99.90
26304;DHT22;57113;48.680;8.890;2023-02-01T06:23:25;6.60;99.90
26304;DHT22;57113;48.680;8.890;2023-02-01T06:26:02;6.50;99.90
26304;DHT22;57113;48.680;8.890;2023-02-01T06:28:29;6.40;99.90
26304;DHT22;57113;48.680;8.890;2023-02-01T06:30:55;6.30;99.90
26304;DHT22;57113;48.680;8.890;2023-02-01T06:33:21;6.30;99.90
26304;DHT22;57113;48.680;8.890;2023-02-01T06:35:46;6.20;99.90
26304;DHT22;57113;48.680;8.890;2023-02-01T06:38:13;6.10;99.90
26304;DHT22;57113;48.680;8.890;2023-02-01T06:40:39;6.10;99.90
26304;DHT22;57113;48.680;8.890;2023-02-01T06:43:06;6.10;99.90
26304;DHT22;57113;48.680;8.890;2023-02-01T06:45:32;6.00;99.90
26304;DHT22;57113;48.680;8.890;2023-02-01T06:47:58;5.90;99.90
26304;DHT22;57113;48.680;8.890;2023-02-01T06:50:26;5.90;99.90
26304;DHT22;57113;48.680;8.890;2023-02-01T06:52:51;5.90;99.90
26304;DHT22;57113;48.680;8.890;2023-02-01T06:55:18;5.90;99.90
26304;DHT22;57113;48.680;8.890;2023-02-01T06:57:43;5.80;99.90
26304;DHT22;57113;48.680;8.890;2023-02-01T07:00:09;5.80;99.90
26304;DHT22;57113;48.680;8.890;2023-02-01T07:02:35;5.80;99.90
26304;DHT22;57113;48.680;8.890;2023-02-01T07:05:01;5.90;99.90
26304;DHT22;57113;48.680;8.890;2023-02-01T07:07:26;6.00;99.90
26304;DHT22;57113;48.680;8.890;2023-02-01T07:09:52;6.30;99.90
26304;DHT22;57113;48.680;8.890;2023-02-01T07:12:19;6.50;99.90
26304;DHT22;57113;48.680;8.890;2023-02-01T07:14:44;6.70;99.90
26304;DHT22;57113;48.680;8.890;2023-02-01T07:17:10;6.70;99.90
26304;DHT22;57113;48.680;8.890;2023-02-01T07:19:36;6.70;99.90
26304;DHT22;57113;48.680;8.890;2023-02-01T07:22:01;6.60;99.90
26304;DHT22;57113;48.680;8.890;2023-02-01T07:24:27;6.50;99.90
26304;DHT22;57113;48.680;8.890;2023-02-01T07:26:52;6.50;99.90
26304;DHT22;57113;48.680;8.890;2023-02-01T07:29:18;6.40;99.90
26304;DHT22;57113;48.680;8.890;2023-02-01T07:31:44;6.30;99.90
26304;DHT22;57113;48.680;8.890;2023-02-01T07:34:09;6.20;99.90
26304;DHT22;57113;48.680;8.890;2023-02-01T07:36:35;6.20;99.90
26304;DHT22;57113;48.680;8.890;2023-02-01T07:39:05;6.10;99.90
26304;DHT22;57113;48.680;8.890;2023-02-01T07:41:31;6.10;99.90
26304;DHT22;57113;48.680;8.890;2023-02-01T07:43:56;6.00;99.90
26304;DHT22;57113;48.680;8.890;2023-02-01T07:46:22;6.10;99.90
26304;DHT22;57113;48.680;8.890;2023-02-01T07:48:48;6.00;99.90
26304;DHT22;57113;48.680;8.890;2023-02-01T07:51:15;6.00;99.90
26304;DHT22;57113;48.680;8.890;2023-02-01T07:53:42;6.00;99.90
26304;DHT22;57113;48.680;8.890;2023-02-01T07:56:14;6.00;99.90
26304;DHT22;57113;48.680;8.890;2023-02-01T07:58:40;6.00;99.90
26304;DHT22;57113;48.680;8.890;2023-02-01T08:01:05;6.00;99.90
26304;DHT22;57113;48.680;8.890;2023-02-01T08:03:48;6.00;99.90
26304;DHT22;57113;48.680;8.890;2023-02-01T08:06:14;6.00;99.90
26304;DHT22;57113;48.680;8.890;2023-02-01T08:08:39;6.00;99.90
26304;DHT22;57113;48.680;8.890;2023-02-01T08:11:06;6.00;99.90
26304;DHT22;57113;48.680;8.890;2023-02-01T08:13:34;6.00;99.90
26304;DHT22;57113;48.680;8.890;2023-02-01T08:16:05;5.90;99.90
26304;DHT22;57113;48.680;8.890;2023-02-01T08:18:31;6.00;99.90
26304;DHT22;57113;48.680;8.890;2023-02-01T08:21:01;6.00;99.90
26304;DHT22;57113;48.680;8.890;2023-02-01T08:23:27;5.90;99.90
26304;DHT22;57113;48.680;8.890;2023-02-01T08:25:53;5.90;99.90
26304;DHT22;57113;48.680;8.890;2023-02-01T08:28:18;5.90;99.90
26304;DHT22;57113;48.680;8.890;2023-02-01T08:30:44;6.00;99.90
26304;DHT22;57113;48.680;8.890;2023-02-01T08:33:09;6.00;99.90
26304;DHT22;57113;48.680;8.890;2023-02-01T08:35:36;6.00;99.90
26304;DHT22;57113;48.680;8.890;2023-02-01T08:38:02;6.00;99.90
26304;DHT22;57113;48.680;8.890;2023-02-01T08:40:28;6.00;99.90
26304;DHT22;57113;48.680;8.890;2023-02-01T08:42:54;6.00;99.90
26304;DHT22;57113;48.680;8.890;2023-02-01T08:45:23;6.00;99.90
26304;DHT22;57113;48.680;8.890;2023-02-01T08:47:55;5.90;99.90
26304;DHT22;57113;48.680;8.890;2023-02-01T08:50:22;6.00;99.90
26304;DHT22;57113;48.680;8.890;2023-02-01T08:52:48;5.90;99.90
26304;DHT22;57113;48.680;8.890;2023-02-01T08:55:14;6.00;99.90
26304;DHT22;57113;48.680;8.890;2023-02-01T08:57:41;6.00;99.90
26304;DHT22;57113;48.680;8.890;2023-02-01T09:00:10;6.00;99.90
26304;DHT22;57113;48.680;8.890;2023-02-01T09:02:36;6.00;99.90
26304;DHT22;57113;48.680;8.890;2023-02-01T09:05:03;6.00;99.90
26304;DHT22;57113;48.680;8.890;2023-02-01T09:07:29;6.00;99.90
26304;DHT22;57113;48.680;8.890;2023-02-01T09:09:54;5.90;99.90
26304;DHT22;57113;48.680;8.890;2023-02-01T09:12:22;6.00;99.90
26304;DHT22;57113;48.680;8.890;2023-02-01T09:14:47;5.90;99.90
26304;DHT22;57113;48.680;8.890;2023-02-01T09:17:13;5.90;99.90
26304;DHT22;57113;48.680;8.890;2023-02-01T09:19:42;5.90;99.90
26304;DHT22;57113;48.680;8.890;2023-02-01T09:22:08;5.90;99.90
26304;DHT22;57113;48.680;8.890;2023-02-01T09:24:33;5.90;99.90
26304;DHT22;57113;48.680;8.890;2023-02-01T09:26:59;5.90;99.90
26304;DHT22;57113;48.680;8.890;2023-02-01T09:29:24;5.90;99.90
26304;DHT22;57113;48.680;8.890;2023-02-01T09:31:50;5.80;99.90
26304;DHT22;57113;48.680;8.890;2023-02-01T09:34:15;5.80;99.90
26304;DHT22;57113;48.680;8.890;2023-02-01T09:36:41;5.80;99.90
26304;DHT22;57113;48.680;8.890;2023-02-01T09:39:07;5.80;99.90
26304;DHT22;57113;48.680;8.890;2023-02-01T09:41:48;5.80;99.90
26304;DHT22;57113;48.680;8.890;2023-02-01T09:47:03;5.80;99.90
26304;DHT22;57113;48.680;8.890;2023-02-01T09:49:34;5.80;99.90
26304;DHT22;57113;48.680;8.890;2023-02-01T09:52:04;5.80;99.90
26304;DHT22;57113;48.680;8.890;2023-02-01T09:54:52;5.80;99.90
26304;DHT22;57113;48.680;8.890;2023-02-01T09:57:32;5.80;99.90
26304;DHT22;57113;48.680;8.890;2023-02-01T10:00:06;5.80;99.90
26304;DHT22;57113;48.680;8.890;2023-02-01T10:02:36;5.80;99.90
26304;DHT22;57113;48.680;8.890;2023-02-01T10:05:04;5.80;99.90
26304;DHT22;57113;48.680;8.890;2023-02-01T10:10:28;5.80;99.90
26304;DHT22;57113;48.680;8.890;2023-02-01T10:18:51;5.80;99.90
26304;DHT22;57113;48.680;8.890;2023-02-01T10:21:51;5.80;99.90
26304;DHT22;57113;48.680;8.890;2023-02-01T10:24:47;5.80;99.90
26304;DHT22;57113;48.680;8.890;2023-02-01T10:27:22;5.80;99.90
26304;DHT22;57113;48.680;8.890;2023-02-01T10:30:05;5.80;99.90
26304;DHT22;57113;48.680;8.890;2023-02-01T10:32:34;5.80;99.90
26304;DHT22;57113;48.680;8.890;2023-02-01T10:35:16;5.90;99.90
26304;DHT22;57113;48.680;8.890;2023-02-01T10:37:43;5.80;99.90
26304;DHT22;57113;48.680;8.890;2023-02-01T10:40:21;5.80;99.90
26304;DHT22;57113;48.680;8.890;2023-02-01T10:42:49;5.80;99.90
26304;DHT22;57113;48.680;8.890;2023-02-01T10:45:19;5.80;99.90
26304;DHT22;57113;48.680;8.890;2023-02-01T10:47:47;5.90;99.90
26304;DHT22;57113;48.680;8.890;2023-02-01T10:53:15;5.90;99.90
26304;DHT22;57113;48.680;8.890;2023-02-01T10:55:47;5.90;99.90
26304;DHT22;57113;48.680;8.890;2023-02-01T10:58:29;5.90;99.90
26304;DHT22;57113;48.680;8.890;2023-02-01T11:01:02;5.90;99.90
26304;DHT22;57113;48.680;8.890;2023-02-01T11:03:56;5.90;99.90
26304;DHT22;57113;48.680;8.890;2023-02-01T11:06:51;5.90;99.90
26304;DHT22;57113;48.680;8.890;2023-02-01T11:09:22;5.90;99.90
26304;DHT22;57113;48.680;8.890;2023-02-01T11:16:59;5.90;99.90
26304;DHT22;57113;48.680;8.890;2023-02-01T11:19:28;5.90;99.90
26304;DHT22;57113;48.680;8.890;2023-02-01T11:21:56;5.90;99.90
26304;DHT22;57113;48.680;8.890;2023-02-01T11:24:27;5.90;99.90
26304;DHT22;57113;48.680;8.890;2023-02-01T11:26:58;5.90;99.90
26304;DHT22;57113;48.680;8.890;2023-02-01T11:29:25;5.90;99.90
26304;DHT22;57113;48.680;8.890;2023-02-01T11:31:56;5.90;99.90
26304;DHT22;57113;48.680;8.890;2023-02-01T11:34:26;6.00;99.90
26304;DHT22;57113;48.680;8.890;2023-02-01T11:36:57;6.00;99.90
26304;DHT22;57113;48.680;8.890;2023-02-01T11:39:35;6.00;99.90
26304;DHT22;57113;48.680;8.890;2023-02-01T11:42:05;6.00;99.90
26304;DHT22;57113;48.680;8.890;2023-02-01T11:44:44;6.00;99.90
26304;DHT22;57113;48.680;8.890;2023-02-01T11:47:23;6.00;99.90
26304;DHT22;57113;48.680;8.890;2023-02-01T11:49:55;6.10;99.90
26304;DHT22;57113;48.680;8.890;2023-02-01T11:52:51;6.10;99.90
26304;DHT22;57113;48.680;8.890;2023-02-01T11:55:43;6.10;99.90
26304;DHT22;57113;48.680;8.890;2023-02-01T12:06:53;6.20;99.90
26304;DHT22;57113;48.680;8.890;2023-02-01T12:15:26;6.20;99.90
26304;DHT22;57113;48.680;8.890;2023-02-01T12:31:55;6.20;99.90
26304;DHT22;57113;48.680;8.890;2023-02-01T12:34:46;6.20;99.90
26304;DHT22;57113;48.680;8.890;2023-02-01T12:42:48;6.20;99.90
26304;DHT22;57113;48.680;8.890;2023-02-01T12:51:27;6.10;99.90
26304;DHT22;57113;48.680;8.890;2023-02-01T12:56:41;6.10;99.90
26304;DHT22;57113;48.680;8.890;2023-02-01T12:59:23;6.00;99.90
26304;DHT22;57113;48.680;8.890;2023-02-01T13:07:43;6.00;99.90
26304;DHT22;57113;48.680;8.890;2023-02-01T13:12:57;6.00;99.90
26304;DHT22;57113;48.680;8.890;2023-02-01T13:15:36;6.10;99.90
26304;DHT22;57113;48.680;8.890;2023-02-01T13:18:05;6.00;99.90
26304;DHT22;57113;48.680;8.890;2023-02-01T13:21:04;6.10;99.90
26304;DHT22;57113;48.680;8.890;2023-02-01T13:23:34;6.00;99.90
26304;DHT22;57113;48.680;8.890;2023-02-01T13:26:00;6.00;99.90
26304;DHT22;57113;48.680;8.890;2023-02-01T13:42:00;6.00;99.90
26304;DHT22;57113;48.680;8.890;2023-02-01T13:44:42;6.00;99.90
26304;DHT22;57113;48.680;8.890;2023-02-01T13:47:34;6.00;99.90
26304;DHT22;57113;48.680;8.890;2023-02-01T13:50:16;6.00;99.90
26304;DHT22;57113;48.680;8.890;2023-02-01T13:52:50;6.00;99.90
26304;DHT22;57113;48.680;8.890;2023-02-01T13:57:47;6.00;99.90
26304;DHT22;57113;48.680;8.890;2023-02-01T14:00:42;6.00;99.90
26304;DHT22;57113;48.680;8.890;2023-02-01T14:03:15;6.00;99.90
26304;DHT22;57113;48.680;8.890;2023-02-01T14:08:14;6.00;99.90
26304;DHT22;57113;48.680;8.890;2023-02-01T14:23:58;6.00;99.90
26304;DHT22;57113;48.680;8.890;2023-02-01T14:29:19;6.00;99.90
26304;DHT22;57113;48.680;8.890;2023-02-01T14:34:50;6.00;99.90
26304;DHT22;57113;48.680;8.890;2023-02-01T14:55:53;6.00;99.90
26304;DHT22;57113;48.680;8.890;2023-02-01T15:01:29;6.00;99.90
26304;DHT22;57113;48.680;8.890;2023-02-01T15:06:42;6.00;99.90
26304;DHT22;57113;48.680;8.890;2023-02-01T15:09:12;6.00;99.90
26304;DHT22;57113;48.680;8.890;2023-02-01T15:14:32;6.00;99.90
26304;DHT22;57113;48.680;8.890;2023-02-01T15:16:58;6.00;99.90
26304;DHT22;57113;48.680;8.890;2023-02-01T15:19:27;6.10;99.90
26304;DHT22;57113;48.680;8.890;2023-02-01T15:21:55;6.10;99.90
26304;DHT22;57113;48.680;8.890;2023-02-01T15:24:22;6.10;99.90
26304;DHT22;57113;48.680;8.890;2023-02-01T15:26:49;6.10;99.90
26304;DHT22;57113;48.680;8.890;2023-02-01T15:29:23;6.10;99.90
26304;DHT22;57113;48.680;8.890;2023-02-01T15:31:53;6.10;99.90
26304;DHT22;57113;48.680;8.890;2023-02-01T15:34:20;6.10;99.90
26304;DHT22;57113;48.680;8.890;2023-02-01T15:36:46;6.10;99.90
26304;DHT22;57113;48.680;8.890;2023-02-01T15:41:38;6.20;99.90
26304;DHT22;57113;48.680;8.890;2023-02-01T15:44:12;6.20;99.90
26304;DHT22;57113;48.680;8.890;2023-02-01T15:46:42;6.20;99.90
26304;DHT22;57113;48.680;8.890;2023-02-01T15:51:47;6.20;99.90
26304;DHT22;57113;48.680;8.890;2023-02-01T15:57:33;6.20;99.90
26304;DHT22;57113;48.680;8.890;2023-02-01T16:00:02;6.20;99.90
26304;DHT22;57113;48.680;8.890;2023-02-01T16:02:37;6.20;99.90
26304;DHT22;57113;48.680;8.890;2023-02-01T16:05:36;6.30;99.90
26304;DHT22;57113;48.680;8.890;2023-02-01T16:08:25;6.20;99.90
26304;DHT22;57113;48.680;8.890;2023-02-01T16:10:53;6.20;99.90
26304;DHT22;57113;48.680;8.890;2023-02-01T16:13:20;6.20;99.90
26304;DHT22;57113;48.680;8.890;2023-02-01T16:15:46;6.20;99.90
26304;DHT22;57113;48.680;8.890;2023-02-01T16:18:13;6.30;99.90
26304;DHT22;57113;48.680;8.890;2023-02-01T16:20:40;6.30;99.90
26304;DHT22;57113;48.680;8.890;2023-02-01T16:23:07;6.30;99.90
26304;DHT22;57113;48.680;8.890;2023-02-01T16:25:35;6.30;99.90
26304;DHT22;57113;48.680;8.890;2023-02-01T16:28:01;6.30;99.90
26304;DHT22;57113;48.680;8.890;2023-02-01T16:30:27;6.30;99.90
26304;DHT22;57113;48.680;8.890;2023-02-01T16:32:54;6.30;99.90
26304;DHT22;57113;48.680;8.890;2023-02-01T16:35:32;6.30;99.90
26304;DHT22;57113;48.680;8.890;2023-02-01T16:38:05;6.30;99.90
26304;DHT22;57113;48.680;8.890;2023-02-01T16:40:34;6.30;99.90
26304;DHT22;57113;48.680;8.890;2023-02-01T16:43:00;6.30;99.90
26304;DHT22;57113;48.680;8.890;2023-02-01T16:45:25;6.30;99.90
26304;DHT22;57113;48.680;8.890;2023-02-01T16:47:54;6.30;99.90
26304;DHT22;57113;48.680;8.890;2023-02-01T16:50:24;6.30;99.90
26304;DHT22;57113;48.680;8.890;2023-02-01T16:52:51;6.30;99.90
26304;DHT22;57113;48.680;8.890;2023-02-01T16:55:19;6.30;99.90
26304;DHT22;57113;48.680;8.890;2023-02-01T16:57:46;6.30;99.90
26304;DHT22;57113;48.680;8.890;2023-02-01T17:00:13;6.30;99.90
26304;DHT22;57113;48.680;8.890;2023-02-01T17:02:41;6.30;99.90
26304;DHT22;57113;48.680;8.890;2023-02-01T17:05:08;6.40;99.90
26304;DHT22;57113;48.680;8.890;2023-02-01T17:07:35;6.60;99.90
26304;DHT22;57113;48.680;8.890;2023-02-01T17:10:04;6.80;99.90
26304;DHT22;57113;48.680;8.890;2023-02-01T17:12:32;7.10;99.90
26304;DHT22;57113;48.680;8.890;2023-02-01T17:14:58;7.30;99.90
26304;DHT22;57113;48.680;8.890;2023-02-01T17:17:33;7.30;99.90
26304;DHT22;57113;48.680;8.890;2023-02-01T17:20:00;7.30;99.90
26304;DHT22;57113;48.680;8.890;2023-02-01T17:22:25;7.20;99.90
26304;DHT22;57113;48.680;8.890;2023-02-01T17:24:51;7.10;99.90
26304;DHT22;57113;48.680;8.890;2023-02-01T17:27:17;7.00;99.90
26304;DHT22;57113;48.680;8.890;2023-02-01T17:29:43;7.00;99.90
26304;DHT22;57113;48.680;8.890;2023-02-01T17:32:19;6.90;99.90
26304;DHT22;57113;48.680;8.890;2023-02-01T17:34:45;6.80;99.90
26304;DHT22;57113;48.680;8.890;2023-02-01T17:37:32;6.80;99.90
26304;DHT22;57113;48.680;8.890;2023-02-01T17:39:58;6.70;99.90
26304;DHT22;57113;48.680;8.890;2023-02-01T17:42:27;6.70;99.90
26304;DHT22;57113;48.680;8.890;2023-02-01T17:44:56;6.70;99.90
26304;DHT22;57113;48.680;8.890;2023-02-01T17:47:22;6.70;99.90
26304;DHT22;57113;48.680;8.890;2023-02-01T17:49:48;6.60;99.90
26304;DHT22;57113;48.680;8.890;2023-02-01T17:52:20;6.60;99.90
26304;DHT22;57113;48.680;8.890;2023-02-01T17:54:46;6.60;99.90
26304;DHT22;57113;48.680;8.890;2023-02-01T17:57:15;6.60;99.90
26304;DHT22;57113;48.680;8.890;2023-02-01T17:59:43;6.60;99.90
26304;DHT22;57113;48.680;8.890;2023-02-01T18:02:23;6.60;99.90
26304;DHT22;57113;48.680;8.890;2023-02-01T18:04:50;6.60;99.90
26304;DHT22;57113;48.680;8.890;2023-02-01T18:07:16;6.80;99.90
26304;DHT22;57113;48.680;8.890;2023-02-01T18:09:42;7.00;99.90
26304;DHT22;57113;48.680;8.890;2023-02-01T18:12:19;7.30;99.90
26304;DHT22;57113;48.680;8.890;2023-02-01T18:14:46;7.40;99.90
26304;DHT22;57113;48.680;8.890;2023-02-01T18:17:11;7.40;99.90
26304;DHT22;57113;48.680;8.890;2023-02-01T18:19:37;7.40;99.90
26304;DHT22;57113;48.680;8.890;2023-02-01T18:22:03;7.30;99.90
26304;DHT22;57113;48.680;8.890;2023-02-01T18:24:29;7.20;99.90
26304;DHT22;57113;48.680;8.890;2023-02-01T18:26:58;7.20;99.90
26304;DHT22;57113;48.680;8.890;2023-02-01T18:29:24;7.00;99.90
26304;DHT22;57113;48.680;8.890;2023-02-01T18:31:50;6.90;99.90
26304;DHT22;57113;48.680;8.890;2023-02-01T18:34:16;6.90;99.90
26304;DHT22;57113;48.680;8.890;2023-02-01T18:36:47;6.80;99.90
26304;DHT22;57113;48.680;8.890;2023-02-01T18:39:13;6.80;99.90
26304;DHT22;57113;48.680;8.890;2023-02-01T18:41:38;6.70;99.90
26304;DHT22;57113;48.680;8.890;2023-02-01T18:44:05;6.70;99.90
26304;DHT22;57113;48.680;8.890;2023-02-01T18:46:31;6.70;99.90
26304;DHT22;57113;48.680;8.890;2023-02-01T18:48:56;6.70;99.90
26304;DHT22;57113;48.680;8.890;2023-02-01T18:51:22;6.60;99.90
26304;DHT22;57113;48.680;8.890;2023-02-01T18:53:49;6.60;99.90
26304;DHT22;57113;48.680;8.890;2023-02-01T18:56:16;6.60;99.90
26304;DHT22;57113;48.680;8.890;2023-02-01T18:58:42;6.60;99.90
26304;DHT22;57113;48.680;8.890;2023-02-01T19:01:13;6.60;99.90
26304;DHT22;57113;48.680;8.890;2023-02-01T19:03:40;6.60;99.90
26304;DHT22;57113;48.680;8.890;2023-02-01T19:06:06;6.80;99.90
26304;DHT22;57113;48.680;8.890;2023-02-01T19:08:32;7.00;99.90